createdAt,value
2022-12-31T00:00:16.068Z,1.63
2022-12-31T00:02:43.071Z,1.52
2022-12-31T00:05:10.663Z,1.50
2022-12-31T00:10:04.643Z,1.90
2022-12-31T00:12:31.714Z,1.50
2022-12-31T00:14:58.622Z,1.20
2022-12-31T00:17:25.594Z,1.60
2022-12-31T00:19:52.534Z,1.35
2022-12-31T00:22:19.535Z,1.25
2022-12-31T00:24:46.539Z,1.20
2022-12-31T00:27:13.427Z,1.48
2022-12-31T00:29:40.367Z,1.30
2022-12-31T00:32:07.392Z,1.10
2022-12-31T00:34:34.253Z,1.88
2022-12-31T00:37:01.049Z,1.20
2022-12-31T00:39:27.945Z,1.15
2022-12-31T00:41:54.947Z,1.40
2022-12-31T00:44:21.913Z,1.02
2022-12-31T00:46:48.831Z,1.20
2022-12-31T00:49:16.022Z,1.08
2022-12-31T00:51:42.890Z,1.05
2022-12-31T00:54:10.247Z,1.00
2022-12-31T00:56:37.150Z,1.50
2022-12-31T00:59:04.505Z,1.23
2022-12-31T01:01:38.154Z,1.45
2022-12-31T01:04:16.805Z,1.15
2022-12-31T01:06:44.288Z,1.30
2022-12-31T01:09:13.437Z,1.55
2022-12-31T01:11:40.895Z,1.75
2022-12-31T01:14:15.334Z,1.45
2022-12-31T01:16:52.299Z,1.23
2022-12-31T01:19:29.725Z,1.67
2022-12-31T01:21:57.186Z,1.58
2022-12-31T01:24:24.627Z,1.42
2022-12-31T01:26:52.062Z,1.75
2022-12-31T01:29:19.282Z,1.30
2022-12-31T01:31:46.401Z,1.52
2022-12-31T01:34:13.309Z,1.25
2022-12-31T01:36:40.321Z,1.23
2022-12-31T01:39:09.258Z,1.25
2022-12-31T01:41:45.121Z,1.25
2022-12-31T01:44:11.983Z,1.20
2022-12-31T01:46:53.999Z,1.60
2022-12-31T01:49:35.897Z,1.35
2022-12-31T01:52:30.126Z,1.30
2022-12-31T01:55:09.524Z,1.40
2022-12-31T01:57:37.388Z,1.05
2022-12-31T02:00:06.457Z,1.27
2022-12-31T02:02:33.975Z,1.10
2022-12-31T02:05:07.621Z,1.15
2022-12-31T02:07:34.587Z,0.90
2022-12-31T02:10:01.922Z,1.05
2022-12-31T02:12:28.799Z,1.48
2022-12-31T02:14:56.639Z,1.45
2022-12-31T02:17:26.283Z,1.20
2022-12-31T02:20:30.689Z,1.10
2022-12-31T02:23:25.537Z,1.10
2022-12-31T02:26:22.689Z,1.30
2022-12-31T02:29:35.863Z,1.38
2022-12-31T02:32:17.752Z,1.02
2022-12-31T02:35:15.785Z,0.90
2022-12-31T02:37:46.094Z,1.30
2022-12-31T02:40:18.142Z,1.02
2022-12-31T02:42:48.625Z,1.10
2022-12-31T02:45:28.021Z,1.25
2022-12-31T02:48:36.283Z,1.10
2022-12-31T02:51:29.249Z,1.08
2022-12-31T02:54:32.539Z,1.10
2022-12-31T02:57:33.925Z,1.20
2022-12-31T03:00:37.873Z,1.17
2022-12-31T03:03:06.665Z,1.10
2022-12-31T03:05:41.481Z,1.30
2022-12-31T03:08:08.943Z,1.00
2022-12-31T03:10:36.672Z,1.00
2022-12-31T03:13:03.636Z,1.10
2022-12-31T03:15:33.584Z,1.00
2022-12-31T03:18:02.676Z,1.02
2022-12-31T03:20:57.619Z,1.10
2022-12-31T03:23:50.289Z,0.98
2022-12-31T03:26:17.192Z,1.00
2022-12-31T03:28:47.791Z,0.95
2022-12-31T03:31:16.188Z,1.55
2022-12-31T03:33:43.375Z,0.80
2022-12-31T03:36:14.203Z,0.90
2022-12-31T03:38:41.777Z,0.80
2022-12-31T03:41:11.686Z,1.08
2022-12-31T03:43:39.007Z,1.45
2022-12-31T03:46:06.077Z,0.90
2022-12-31T03:48:32.906Z,1.00
2022-12-31T03:50:59.873Z,1.17
2022-12-31T03:53:27.457Z,1.02
2022-12-31T03:55:54.899Z,0.95
2022-12-31T03:58:22.178Z,0.73
2022-12-31T04:00:49.622Z,0.85
2022-12-31T04:03:16.582Z,0.90
2022-12-31T04:05:43.582Z,0.80
2022-12-31T04:08:10.684Z,0.90
2022-12-31T04:10:37.753Z,0.90
2022-12-31T04:13:04.821Z,1.05
2022-12-31T04:15:32.118Z,1.00
2022-12-31T04:17:59.100Z,0.90
2022-12-31T04:20:26.188Z,0.90
2022-12-31T04:22:53.106Z,0.90
2022-12-31T04:25:20.165Z,0.93
2022-12-31T04:27:47.109Z,0.82
2022-12-31T04:30:14.366Z,1.40
2022-12-31T04:32:41.936Z,0.70
2022-12-31T04:35:10.367Z,0.80
2022-12-31T04:37:37.269Z,0.85
2022-12-31T04:40:08.640Z,0.80
2022-12-31T04:42:36.954Z,1.00
2022-12-31T04:45:04.976Z,0.80
2022-12-31T04:47:32.006Z,0.82
2022-12-31T04:49:58.818Z,0.70
2022-12-31T04:52:25.825Z,0.82
2022-12-31T04:54:52.606Z,0.70
2022-12-31T04:57:19.508Z,0.85
2022-12-31T04:59:46.348Z,0.85
2022-12-31T05:02:13.466Z,0.80
2022-12-31T05:04:40.411Z,1.00
2022-12-31T05:07:07.338Z,0.77
2022-12-31T05:09:34.324Z,0.90
2022-12-31T05:12:01.198Z,0.80
2022-12-31T05:14:27.966Z,0.70
2022-12-31T05:16:55.076Z,0.70
2022-12-31T05:19:21.914Z,0.70
2022-12-31T05:22:08.867Z,0.60
2022-12-31T05:24:36.058Z,0.75
2022-12-31T05:27:03.371Z,0.95
2022-12-31T05:29:30.155Z,0.80
2022-12-31T05:31:57.012Z,0.70
2022-12-31T05:34:23.803Z,1.20
2022-12-31T05:36:50.736Z,1.10
2022-12-31T05:39:17.628Z,0.90
2022-12-31T05:41:44.435Z,0.90
2022-12-31T05:44:11.869Z,0.93
2022-12-31T05:46:38.741Z,1.02
2022-12-31T05:49:05.594Z,0.90
2022-12-31T05:51:32.806Z,0.90
2022-12-31T05:53:59.594Z,0.88
2022-12-31T05:56:26.554Z,0.90
2022-12-31T05:58:53.368Z,0.82
2022-12-31T06:01:20.364Z,0.90
2022-12-31T06:03:47.428Z,1.13
2022-12-31T06:06:14.450Z,1.25
2022-12-31T06:08:41.319Z,1.00
2022-12-31T06:11:08.375Z,0.90
2022-12-31T06:13:35.381Z,1.00
2022-12-31T06:16:10.201Z,1.15
2022-12-31T06:18:37.651Z,1.30
2022-12-31T06:21:05.187Z,1.35
2022-12-31T06:23:32.203Z,1.17
2022-12-31T06:26:06.045Z,1.30
2022-12-31T06:28:33.583Z,1.10
2022-12-31T06:31:06.737Z,1.30
2022-12-31T06:33:34.874Z,1.50
2022-12-31T06:36:04.958Z,1.20
2022-12-31T06:38:34.796Z,1.25
2022-12-31T06:41:10.693Z,1.52
2022-12-31T06:43:39.547Z,1.40
2022-12-31T06:46:10.927Z,1.67
2022-12-31T06:48:38.712Z,1.40
2022-12-31T06:51:13.408Z,1.50
2022-12-31T06:53:44.853Z,1.42
2022-12-31T06:56:18.071Z,1.00
2022-12-31T06:58:46.222Z,1.55
2022-12-31T07:01:28.254Z,1.27
2022-12-31T07:04:24.989Z,1.17
2022-12-31T07:07:21.481Z,1.15
2022-12-31T07:10:13.036Z,0.90
2022-12-31T07:13:36.746Z,1.27
2022-12-31T07:16:27.866Z,1.50
2022-12-31T07:19:39.595Z,1.58
2022-12-31T07:22:17.285Z,1.23
2022-12-31T07:24:44.735Z,1.42
2022-12-31T07:27:20.570Z,1.38
2022-12-31T07:30:10.450Z,1.40
2022-12-31T07:33:18.414Z,1.38
2022-12-31T07:36:12.915Z,1.20
2022-12-31T07:39:09.126Z,1.60
2022-12-31T07:42:16.496Z,1.55
2022-12-31T07:45:20.848Z,1.20
2022-12-31T07:47:48.341Z,1.63
2022-12-31T07:50:18.339Z,1.52
2022-12-31T07:52:46.167Z,1.50
2022-12-31T07:55:13.358Z,2.03
2022-12-31T07:58:07.201Z,1.67
2022-12-31T08:00:34.167Z,1.60
2022-12-31T08:03:28.693Z,1.50
2022-12-31T08:06:17.755Z,1.50
2022-12-31T08:08:54.019Z,1.48
2022-12-31T08:11:40.941Z,1.95
2022-12-31T08:14:13.675Z,1.48
2022-12-31T08:16:41.353Z,2.00
2022-12-31T08:19:23.687Z,1.65
2022-12-31T08:22:46.048Z,1.67
2022-12-31T08:25:26.783Z,1.33
2022-12-31T08:28:25.701Z,1.70
2022-12-31T08:31:25.520Z,1.67
2022-12-31T08:34:17.242Z,1.75
2022-12-31T08:37:12.793Z,1.70
2022-12-31T08:39:58.077Z,1.70
2022-12-31T08:42:49.245Z,1.48
2022-12-31T08:45:33.132Z,1.77
2022-12-31T08:48:24.480Z,1.42
2022-12-31T08:50:51.895Z,1.27
2022-12-31T08:53:19.105Z,1.85
2022-12-31T08:55:48.217Z,1.20
2022-12-31T08:58:53.017Z,1.30
2022-12-31T09:01:25.165Z,1.67
2022-12-31T09:04:53.666Z,1.67
2022-12-31T09:07:33.104Z,1.60
2022-12-31T09:10:25.025Z,1.90
2022-12-31T09:13:26.403Z,1.55
2022-12-31T09:16:19.675Z,1.80
2022-12-31T09:21:16.152Z,1.65
2022-12-31T09:23:43.636Z,1.45
2022-12-31T09:26:47.503Z,1.33
2022-12-31T09:29:42.569Z,1.73
2022-12-31T09:32:21.795Z,1.30
2022-12-31T09:34:57.882Z,1.40
2022-12-31T09:37:46.071Z,1.10
2022-12-31T09:41:02.796Z,1.70
2022-12-31T09:44:01.395Z,2.10
2022-12-31T09:47:16.160Z,1.30
2022-12-31T09:50:38.180Z,1.10
2022-12-31T09:53:16.846Z,1.60
2022-12-31T09:55:52.086Z,1.52
2022-12-31T09:58:40.597Z,1.30
2022-12-31T10:01:43.850Z,1.20
2022-12-31T10:04:39.030Z,1.58
2022-12-31T10:07:33.336Z,1.70
2022-12-31T10:10:07.891Z,1.10
2022-12-31T10:13:09.253Z,1.35
2022-12-31T10:16:12.389Z,1.65
2022-12-31T10:19:29.745Z,1.50
2022-12-31T10:22:14.752Z,1.15
2022-12-31T10:24:45.616Z,1.58
2022-12-31T10:27:18.763Z,1.15
2022-12-31T10:29:59.446Z,1.25
2022-12-31T10:32:35.169Z,1.20
2022-12-31T10:35:34.201Z,1.17
2022-12-31T10:38:23.213Z,1.20
2022-12-31T10:41:28.193Z,1.02
2022-12-31T10:44:28.976Z,1.00
2022-12-31T10:47:01.708Z,1.15
2022-12-31T10:52:16.301Z,1.23
2022-12-31T10:55:09.027Z,1.08
2022-12-31T10:58:13.190Z,1.10
2022-12-31T11:01:13.872Z,1.00
2022-12-31T11:04:37.415Z,1.33
2022-12-31T11:07:30.245Z,0.95
2022-12-31T11:10:46.539Z,0.85
2022-12-31T11:13:37.590Z,1.00
2022-12-31T11:16:43.411Z,0.90
2022-12-31T11:19:24.154Z,1.80
2022-12-31T11:21:56.758Z,0.90
2022-12-31T11:25:11.563Z,0.90
2022-12-31T11:28:01.494Z,1.10
2022-12-31T11:30:42.149Z,0.80
2022-12-31T11:33:51.463Z,0.85
2022-12-31T11:36:58.700Z,0.90
2022-12-31T11:40:07.970Z,0.80
2022-12-31T11:43:03.441Z,1.10
2022-12-31T11:46:00.948Z,1.05
2022-12-31T11:49:27.401Z,0.85
2022-12-31T11:52:33.692Z,1.05
2022-12-31T11:55:11.773Z,1.10
2022-12-31T11:57:42.210Z,0.80
2022-12-31T12:00:22.632Z,0.80
2022-12-31T12:02:57.923Z,0.85
2022-12-31T12:05:26.701Z,0.88
2022-12-31T12:07:54.504Z,0.70
2022-12-31T12:10:35.960Z,0.80
2022-12-31T12:13:28.562Z,0.80
2022-12-31T12:15:59.965Z,0.70
2022-12-31T12:18:51.943Z,0.90
2022-12-31T12:21:24.363Z,0.70
2022-12-31T12:24:05.667Z,0.80
2022-12-31T12:26:42.317Z,0.80
2022-12-31T12:29:15.370Z,0.70
2022-12-31T12:31:57.087Z,1.40
2022-12-31T12:34:37.113Z,1.00
2022-12-31T12:37:05.538Z,1.33
2022-12-31T12:39:34.518Z,1.00
2022-12-31T12:42:13.148Z,0.85
2022-12-31T12:44:42.095Z,0.80
2022-12-31T12:47:16.225Z,0.95
2022-12-31T12:49:49.682Z,0.65
2022-12-31T12:52:47.634Z,0.90
2022-12-31T12:55:35.770Z,0.50
2022-12-31T12:58:32.610Z,0.60
2022-12-31T13:01:48.517Z,0.68
2022-12-31T13:04:49.824Z,0.70
2022-12-31T13:08:13.929Z,0.70
2022-12-31T13:10:58.759Z,0.70
2022-12-31T13:13:59.309Z,0.70
2022-12-31T13:16:43.978Z,0.52
2022-12-31T13:19:30.633Z,0.93
2022-12-31T13:22:31.108Z,0.85
2022-12-31T13:25:08.039Z,0.80
2022-12-31T13:27:40.998Z,0.93
2022-12-31T13:30:40.865Z,1.10
2022-12-31T13:33:18.602Z,0.90
2022-12-31T13:36:00.181Z,0.90
2022-12-31T13:38:56.261Z,0.60
2022-12-31T13:41:48.774Z,0.63
2022-12-31T13:44:29.619Z,0.73
2022-12-31T13:46:56.527Z,0.60
2022-12-31T13:49:37.556Z,0.60
2022-12-31T13:52:36.015Z,1.00
2022-12-31T13:55:24.447Z,1.30
2022-12-31T13:58:44.988Z,0.98
2022-12-31T14:01:42.472Z,0.80
2022-12-31T14:04:28.785Z,0.80
2022-12-31T14:07:18.806Z,0.70
2022-12-31T14:09:46.667Z,0.63
2022-12-31T14:12:44.380Z,0.77
2022-12-31T14:15:33.176Z,1.30
2022-12-31T14:18:45.214Z,1.50
2022-12-31T14:21:23.400Z,1.00
2022-12-31T14:24:13.995Z,1.40
2022-12-31T14:26:49.484Z,1.10
2022-12-31T14:29:46.740Z,1.52
2022-12-31T14:32:44.207Z,0.80
2022-12-31T14:35:20.817Z,1.00
2022-12-31T14:38:19.412Z,0.82
2022-12-31T14:41:01.625Z,0.80
2022-12-31T14:44:08.953Z,1.30
2022-12-31T14:47:12.784Z,0.80
2022-12-31T14:50:11.604Z,0.90
2022-12-31T14:53:09.097Z,1.58
2022-12-31T14:55:40.925Z,1.20
2022-12-31T14:58:28.083Z,0.97
2022-12-31T15:01:00.870Z,0.80
2022-12-31T15:03:50.543Z,0.98
2022-12-31T15:06:23.547Z,0.82
2022-12-31T15:08:56.418Z,0.90
2022-12-31T15:12:02.033Z,1.05
2022-12-31T15:15:10.159Z,1.05
2022-12-31T15:17:40.775Z,0.75
2022-12-31T15:20:49.689Z,0.93
2022-12-31T15:23:35.653Z,0.60
2022-12-31T15:26:04.416Z,0.55
2022-12-31T15:28:38.269Z,0.57
2022-12-31T15:31:18.138Z,0.68
2022-12-31T15:34:24.819Z,0.60
2022-12-31T15:36:55.660Z,0.70
2022-12-31T15:39:32.897Z,0.80
2022-12-31T15:42:36.918Z,1.00
2022-12-31T15:45:07.691Z,0.70
2022-12-31T15:47:40.338Z,0.60
2022-12-31T15:50:19.356Z,1.17
2022-12-31T15:53:07.157Z,0.82
2022-12-31T15:55:43.259Z,0.75
2022-12-31T15:58:19.567Z,0.80
2022-12-31T16:01:10.756Z,0.80
2022-12-31T16:03:42.873Z,1.00
2022-12-31T16:06:16.041Z,0.90
2022-12-31T16:08:49.246Z,0.70
2022-12-31T16:11:17.456Z,1.05
2022-12-31T16:13:52.522Z,0.90
2022-12-31T16:16:32.046Z,0.70
2022-12-31T16:18:59.842Z,0.90
2022-12-31T16:21:38.868Z,0.70
2022-12-31T16:24:32.930Z,1.27
2022-12-31T16:27:08.694Z,1.10
2022-12-31T16:29:42.294Z,0.88
2022-12-31T16:32:17.795Z,0.80
2022-12-31T16:34:45.946Z,0.70
2022-12-31T16:37:19.990Z,1.23
2022-12-31T16:39:59.018Z,1.60
2022-12-31T16:42:28.906Z,0.75
2022-12-31T16:44:57.761Z,0.90
2022-12-31T16:47:36.248Z,0.73
2022-12-31T16:50:21.072Z,1.00
2022-12-31T16:52:51.525Z,1.20
2022-12-31T16:55:23.704Z,1.48
2022-12-31T16:58:18.809Z,0.95
2022-12-31T17:00:48.152Z,0.90
2022-12-31T17:03:22.653Z,1.45
2022-12-31T17:06:09.664Z,1.00
2022-12-31T17:09:05.615Z,3.03
2022-12-31T17:11:39.321Z,1.40
2022-12-31T17:14:06.361Z,1.33
2022-12-31T17:17:01.444Z,2.20
2022-12-31T17:19:39.755Z,1.25
2022-12-31T17:22:17.785Z,1.17
2022-12-31T17:24:48.708Z,1.10
2022-12-31T17:27:15.888Z,0.90
2022-12-31T17:29:44.305Z,2.08
2022-12-31T17:32:36.172Z,1.40
2022-12-31T17:35:26.794Z,1.60
2022-12-31T17:37:53.862Z,1.35
2022-12-31T17:40:50.952Z,1.10
2022-12-31T17:43:20.811Z,1.10
2022-12-31T17:45:51.194Z,1.10
2022-12-31T17:48:20.213Z,1.30
2022-12-31T17:50:59.069Z,1.02
2022-12-31T17:53:26.401Z,1.17
2022-12-31T17:55:57.279Z,0.90
2022-12-31T17:58:32.031Z,1.20
2022-12-31T18:00:59.928Z,1.10
2022-12-31T18:03:27.017Z,0.90
2022-12-31T18:05:54.255Z,1.27
2022-12-31T18:08:21.310Z,0.90
2022-12-31T18:10:48.713Z,1.00
2022-12-31T18:13:25.291Z,1.23
2022-12-31T18:15:52.460Z,1.00
2022-12-31T18:18:25.310Z,0.90
2022-12-31T18:21:00.422Z,1.00
2022-12-31T18:23:33.736Z,1.20
2022-12-31T18:26:00.599Z,0.90
2022-12-31T18:28:27.585Z,0.90
2022-12-31T18:30:54.483Z,0.82
2022-12-31T18:33:25.852Z,1.20
2022-12-31T18:36:10.150Z,0.95
2022-12-31T18:38:37.959Z,1.25
2022-12-31T18:41:05.890Z,1.27
2022-12-31T18:43:33.241Z,1.10
2022-12-31T18:46:00.214Z,0.98
2022-12-31T18:48:27.143Z,0.90
2022-12-31T18:50:54.158Z,1.20
2022-12-31T18:53:25.185Z,1.60
2022-12-31T18:55:57.228Z,1.20
2022-12-31T18:58:24.739Z,0.77
2022-12-31T19:00:52.521Z,0.90
2022-12-31T19:03:27.444Z,1.02
2022-12-31T19:05:54.545Z,0.90
2022-12-31T19:08:23.122Z,1.20
2022-12-31T19:10:52.372Z,1.58
2022-12-31T19:13:20.699Z,0.85
2022-12-31T19:15:51.913Z,0.85
2022-12-31T19:18:19.626Z,1.67
2022-12-31T19:20:46.682Z,1.20
2022-12-31T19:23:18.035Z,1.02
2022-12-31T19:25:47.111Z,1.10
2022-12-31T19:28:26.375Z,0.85
2022-12-31T19:30:53.447Z,1.10
2022-12-31T19:33:20.849Z,1.13
2022-12-31T19:35:48.708Z,1.27
2022-12-31T19:38:25.617Z,0.90
2022-12-31T19:40:53.868Z,1.52
2022-12-31T19:43:23.231Z,1.10
2022-12-31T19:45:51.860Z,1.30
2022-12-31T19:48:28.740Z,1.30
2022-12-31T19:50:59.643Z,1.10
2022-12-31T19:53:27.564Z,2.83
2022-12-31T19:55:54.849Z,2.05
2022-12-31T19:58:25.754Z,2.13
2022-12-31T20:01:01.707Z,1.50
2022-12-31T20:03:29.548Z,1.58
2022-12-31T20:06:09.818Z,1.38
2022-12-31T20:08:38.785Z,1.35
2022-12-31T20:11:24.999Z,1.48
2022-12-31T20:13:54.185Z,1.38
2022-12-31T20:16:26.601Z,1.33
2022-12-31T20:18:54.740Z,1.40
2022-12-31T20:21:27.841Z,1.10
2022-12-31T20:23:55.698Z,1.48
2022-12-31T20:26:25.132Z,3.03
2022-12-31T20:28:53.526Z,1.83
2022-12-31T20:31:24.624Z,2.28
2022-12-31T20:33:53.744Z,2.95
2022-12-31T20:36:20.790Z,1.27
2022-12-31T20:38:48.218Z,1.55
2022-12-31T20:41:18.682Z,1.45
2022-12-31T20:43:46.422Z,2.17
2022-12-31T20:46:18.812Z,2.03
2022-12-31T20:48:47.539Z,1.42
2022-12-31T20:51:16.467Z,1.73
2022-12-31T20:53:49.443Z,1.88
2022-12-31T20:56:17.744Z,1.42
2022-12-31T20:58:45.029Z,1.60
2022-12-31T21:01:12.744Z,1.15
2022-12-31T21:06:30.195Z,2.00
2022-12-31T21:08:59.014Z,1.63
2022-12-31T21:11:45.213Z,1.10
2022-12-31T21:14:12.108Z,1.10
2022-12-31T21:16:39.239Z,1.30
2022-12-31T21:19:06.363Z,2.80
2022-12-31T21:21:33.697Z,2.70
2022-12-31T21:24:00.642Z,3.40
2022-12-31T21:26:29.646Z,5.90
2022-12-31T21:28:56.622Z,2.70
2022-12-31T21:31:23.583Z,1.90
2022-12-31T21:33:50.789Z,1.20
2022-12-31T21:36:18.107Z,0.93
2022-12-31T21:38:45.434Z,1.10
2022-12-31T21:41:34.906Z,1.40
2022-12-31T21:44:03.239Z,2.55
2022-12-31T21:46:30.228Z,4.32
2022-12-31T21:48:59.333Z,2.10
2022-12-31T21:51:26.869Z,2.55
2022-12-31T21:53:53.910Z,1.40
2022-12-31T21:56:22.556Z,1.10
2022-12-31T21:59:14.006Z,1.40
2022-12-31T22:02:00.135Z,1.77
2022-12-31T22:05:00.916Z,1.25
2022-12-31T22:07:15.029Z,2.30
2022-12-31T22:09:41.878Z,1.85
2022-12-31T22:12:08.798Z,1.92
2022-12-31T22:14:35.797Z,1.42
2022-12-31T22:17:02.672Z,1.33
2022-12-31T22:19:29.498Z,1.65
2022-12-31T22:21:56.504Z,1.45
2022-12-31T22:24:23.535Z,1.35
2022-12-31T22:26:51.002Z,1.10
2022-12-31T22:29:19.649Z,1.60
2022-12-31T22:31:46.518Z,1.70
2022-12-31T22:34:13.670Z,1.63
2022-12-31T22:36:40.621Z,1.60
2022-12-31T22:39:07.657Z,1.50
2022-12-31T22:41:35.067Z,1.60
2022-12-31T22:44:04.738Z,2.03
2022-12-31T22:46:33.518Z,1.40
2022-12-31T22:49:03.881Z,2.83
2022-12-31T22:51:57.630Z,3.67
2022-12-31T22:54:19.654Z,6.63
2022-12-31T22:56:46.669Z,3.00
2022-12-31T22:59:13.749Z,5.10
2022-12-31T23:01:40.835Z,12.68
2022-12-31T23:04:07.808Z,77.90
2022-12-31T23:06:43.548Z,48.65
2022-12-31T23:09:32.393Z,48.30
2022-12-31T23:12:00.282Z,60.17
2022-12-31T23:14:46.024Z,15.70
2022-12-31T23:17:38.894Z,20.65
2022-12-31T23:20:34.230Z,22.00
2022-12-31T23:23:10.931Z,23.15
2022-12-31T23:25:51.143Z,23.38
2022-12-31T23:28:24.271Z,12.32
2022-12-31T23:30:52.552Z,10.75
2022-12-31T23:33:23.750Z,14.13
2022-12-31T23:35:50.907Z,8.50
2022-12-31T23:38:18.858Z,11.13
2022-12-31T23:40:46.200Z,4.60
2022-12-31T23:43:21.095Z,4.45
2022-12-31T23:45:52.715Z,8.00
2022-12-31T23:48:20.074Z,6.68
2022-12-31T23:50:53.436Z,8.35
2022-12-31T23:53:22.892Z,8.07
2022-12-31T23:55:50.359Z,6.40
2022-12-31T23:58:17.446Z,4.78
